sensor_id;sensor_type;location;lat;lon;timestamp;P1;durP1;ratioP1;P2;durP2;ratioP2
70078;SDS011;57451;52.496;13.456;2022-11-22T00:00:23;21.63;;;9.07;;
70078;SDS011;57451;52.496;13.456;2022-11-22T00:02:51;19.10;;;8.83;;
70078;SDS011;57451;52.496;13.456;2022-11-22T00:05:18;21.45;;;9.05;;
70078;SDS011;57451;52.496;13.456;2022-11-22T00:07:46;18.67;;;8.65;;
70078;SDS011;57451;52.496;13.456;2022-11-22T00:10:13;20.13;;;8.77;;
70078;SDS011;57451;52.496;13.456;2022-11-22T00:12:41;19.33;;;8.57;;
70078;SDS011;57451;52.496;13.456;2022-11-22T00:15:09;13.68;;;6.88;;
70078;SDS011;57451;52.496;13.456;2022-11-22T00:17:38;20.10;;;8.85;;
70078;SDS011;57451;52.496;13.456;2022-11-22T00:20:06;20.48;;;8.77;;
70078;SDS011;57451;52.496;13.456;2022-11-22T00:22:36;19.70;;;8.73;;
70078;SDS011;57451;52.496;13.456;2022-11-22T00:25:10;17.27;;;8.57;;
70078;SDS011;57451;52.496;13.456;2022-11-22T00:27:38;20.10;;;9.18;;
70078;SDS011;57451;52.496;13.456;2022-11-22T00:30:05;19.20;;;9.07;;
70078;SDS011;57451;52.496;13.456;2022-11-22T00:32:33;20.35;;;9.20;;
70078;SDS011;57451;52.496;13.456;2022-11-22T00:35:02;22.25;;;10.25;;
70078;SDS011;57451;52.496;13.456;2022-11-22T00:37:30;19.08;;;8.23;;
70078;SDS011;57451;52.496;13.456;2022-11-22T00:39:57;18.07;;;8.53;;
70078;SDS011;57451;52.496;13.456;2022-11-22T00:42:24;17.10;;;8.32;;
70078;SDS011;57451;52.496;13.456;2022-11-22T00:44:52;20.60;;;8.77;;
70078;SDS011;57451;52.496;13.456;2022-11-22T00:47:19;15.13;;;7.28;;
70078;SDS011;57451;52.496;13.456;2022-11-22T00:49:46;18.58;;;8.25;;
70078;SDS011;57451;52.496;13.456;2022-11-22T00:52:15;21.98;;;9.60;;
70078;SDS011;57451;52.496;13.456;2022-11-22T00:54:42;21.17;;;9.00;;
70078;SDS011;57451;52.496;13.456;2022-11-22T00:57:18;17.92;;;8.57;;
70078;SDS011;57451;52.496;13.456;2022-11-22T00:59:46;16.63;;;7.18;;
70078;SDS011;57451;52.496;13.456;2022-11-22T01:02:13;19.60;;;9.25;;
70078;SDS011;57451;52.496;13.456;2022-11-22T01:04:40;20.45;;;9.25;;
70078;SDS011;57451;52.496;13.456;2022-11-22T01:07:08;19.58;;;9.27;;
70078;SDS011;57451;52.496;13.456;2022-11-22T01:09:36;24.13;;;8.93;;
70078;SDS011;57451;52.496;13.456;2022-11-22T01:12:04;22.23;;;9.25;;
70078;SDS011;57451;52.496;13.456;2022-11-22T01:14:31;18.38;;;8.35;;
70078;SDS011;57451;52.496;13.456;2022-11-22T01:16:59;22.38;;;8.93;;
70078;SDS011;57451;52.496;13.456;2022-11-22T01:19:26;20.00;;;9.10;;
70078;SDS011;57451;52.496;13.456;2022-11-22T01:21:53;19.40;;;8.60;;
70078;SDS011;57451;52.496;13.456;2022-11-22T01:24:21;24.42;;;8.45;;
70078;SDS011;57451;52.496;13.456;2022-11-22T01:26:49;18.85;;;8.68;;
70078;SDS011;57451;52.496;13.456;2022-11-22T01:29:17;19.60;;;8.23;;
70078;SDS011;57451;52.496;13.456;2022-11-22T01:31:44;19.67;;;8.40;;
70078;SDS011;57451;52.496;13.456;2022-11-22T01:34:11;24.48;;;9.52;;
70078;SDS011;57451;52.496;13.456;2022-11-22T01:36:38;19.88;;;8.82;;
70078;SDS011;57451;52.496;13.456;2022-11-22T01:39:06;19.30;;;8.48;;
70078;SDS011;57451;52.496;13.456;2022-11-22T01:41:33;15.70;;;6.47;;
70078;SDS011;57451;52.496;13.456;2022-11-22T01:46:48;17.83;;;7.53;;
70078;SDS011;57451;52.496;13.456;2022-11-22T01:49:21;21.30;;;8.98;;
70078;SDS011;57451;52.496;13.456;2022-11-22T01:51:54;19.83;;;8.90;;
70078;SDS011;57451;52.496;13.456;2022-11-22T01:54:26;20.50;;;8.88;;
70078;SDS011;57451;52.496;13.456;2022-11-22T01:56:57;19.17;;;8.48;;
70078;SDS011;57451;52.496;13.456;2022-11-22T01:59:31;17.80;;;9.00;;
70078;SDS011;57451;52.496;13.456;2022-11-22T02:02:01;19.07;;;8.27;;
70078;SDS011;57451;52.496;13.456;2022-11-22T02:04:30;20.67;;;9.18;;
70078;SDS011;57451;52.496;13.456;2022-11-22T02:07:00;16.30;;;7.70;;
70078;SDS011;57451;52.496;13.456;2022-11-22T02:09:33;18.52;;;9.13;;
70078;SDS011;57451;52.496;13.456;2022-11-22T02:12:02;19.77;;;8.45;;
70078;SDS011;57451;52.496;13.456;2022-11-22T02:14:33;18.43;;;7.53;;
70078;SDS011;57451;52.496;13.456;2022-11-22T02:17:01;14.68;;;6.70;;
70078;SDS011;57451;52.496;13.456;2022-11-22T02:19:31;16.35;;;7.88;;
70078;SDS011;57451;52.496;13.456;2022-11-22T02:22:05;22.10;;;9.48;;
70078;SDS011;57451;52.496;13.456;2022-11-22T02:24:41;16.73;;;8.47;;
70078;SDS011;57451;52.496;13.456;2022-11-22T02:27:13;22.02;;;8.75;;
70078;SDS011;57451;52.496;13.456;2022-11-22T02:29:40;20.33;;;8.90;;
70078;SDS011;57451;52.496;13.456;2022-11-22T02:32:08;20.38;;;9.30;;
70078;SDS011;57451;52.496;13.456;2022-11-22T02:34:42;22.17;;;8.97;;
70078;SDS011;57451;52.496;13.456;2022-11-22T02:37:12;21.30;;;8.35;;
70078;SDS011;57451;52.496;13.456;2022-11-22T02:39:43;18.20;;;8.02;;
70078;SDS011;57451;52.496;13.456;2022-11-22T02:42:12;22.70;;;9.73;;
70078;SDS011;57451;52.496;13.456;2022-11-22T02:44:40;15.13;;;6.73;;
70078;SDS011;57451;52.496;13.456;2022-11-22T02:47:08;19.13;;;8.65;;
70078;SDS011;57451;52.496;13.456;2022-11-22T02:49:35;17.45;;;8.30;;
70078;SDS011;57451;52.496;13.456;2022-11-22T02:52:02;22.02;;;10.05;;
70078;SDS011;57451;52.496;13.456;2022-11-22T02:54:30;21.77;;;9.73;;
70078;SDS011;57451;52.496;13.456;2022-11-22T02:56:57;21.15;;;9.60;;
70078;SDS011;57451;52.496;13.456;2022-11-22T02:59:26;18.63;;;7.50;;
70078;SDS011;57451;52.496;13.456;2022-11-22T03:01:54;19.92;;;8.57;;
70078;SDS011;57451;52.496;13.456;2022-11-22T03:04:28;19.93;;;9.40;;
70078;SDS011;57451;52.496;13.456;2022-11-22T03:09:19;15.47;;;7.37;;
70078;SDS011;57451;52.496;13.456;2022-11-22T03:11:46;23.92;;;9.25;;
70078;SDS011;57451;52.496;13.456;2022-11-22T03:14:14;23.27;;;9.15;;
70078;SDS011;57451;52.496;13.456;2022-11-22T03:16:41;21.75;;;10.43;;
70078;SDS011;57451;52.496;13.456;2022-11-22T03:19:09;21.90;;;9.33;;
70078;SDS011;57451;52.496;13.456;2022-11-22T03:21:37;18.15;;;8.30;;
70078;SDS011;57451;52.496;13.456;2022-11-22T03:24:05;21.83;;;10.30;;
70078;SDS011;57451;52.496;13.456;2022-11-22T03:26:34;19.98;;;8.35;;
70078;SDS011;57451;52.496;13.456;2022-11-22T03:29:02;23.80;;;9.77;;
70078;SDS011;57451;52.496;13.456;2022-11-22T03:31:29;21.45;;;9.65;;
70078;SDS011;57451;52.496;13.456;2022-11-22T03:33:56;19.77;;;9.65;;
70078;SDS011;57451;52.496;13.456;2022-11-22T03:36:24;24.65;;;9.48;;
70078;SDS011;57451;52.496;13.456;2022-11-22T03:38:51;19.83;;;9.30;;
70078;SDS011;57451;52.496;13.456;2022-11-22T03:41:18;19.42;;;8.32;;
70078;SDS011;57451;52.496;13.456;2022-11-22T03:43:47;22.92;;;10.18;;
70078;SDS011;57451;52.496;13.456;2022-11-22T03:46:14;19.20;;;8.68;;
70078;SDS011;57451;52.496;13.456;2022-11-22T03:48:42;21.35;;;8.90;;
70078;SDS011;57451;52.496;13.456;2022-11-22T03:51:10;23.90;;;11.07;;
70078;SDS011;57451;52.496;13.456;2022-11-22T03:53:37;20.80;;;9.27;;
70078;SDS011;57451;52.496;13.456;2022-11-22T03:56:04;22.25;;;9.90;;
70078;SDS011;57451;52.496;13.456;2022-11-22T03:58:32;23.33;;;9.83;;
70078;SDS011;57451;52.496;13.456;2022-11-22T04:01:01;23.67;;;10.38;;
70078;SDS011;57451;52.496;13.456;2022-11-22T04:03:28;23.92;;;10.20;;
70078;SDS011;57451;52.496;13.456;2022-11-22T04:05:56;20.83;;;9.75;;
70078;SDS011;57451;52.496;13.456;2022-11-22T04:08:23;18.47;;;7.03;;
70078;SDS011;57451;52.496;13.456;2022-11-22T04:10:51;24.10;;;10.32;;
70078;SDS011;57451;52.496;13.456;2022-11-22T04:13:18;23.15;;;10.35;;
70078;SDS011;57451;52.496;13.456;2022-11-22T04:15:45;18.00;;;7.68;;
70078;SDS011;57451;52.496;13.456;2022-11-22T04:18:14;23.00;;;9.43;;
70078;SDS011;57451;52.496;13.456;2022-11-22T04:20:41;24.08;;;10.25;;
70078;SDS011;57451;52.496;13.456;2022-11-22T04:23:27;26.83;;;10.25;;
70078;SDS011;57451;52.496;13.456;2022-11-22T04:25:59;25.42;;;10.13;;
70078;SDS011;57451;52.496;13.456;2022-11-22T04:28:28;19.00;;;8.50;;
70078;SDS011;57451;52.496;13.456;2022-11-22T04:31:15;21.60;;;8.80;;
70078;SDS011;57451;52.496;13.456;2022-11-22T04:34:02;22.45;;;10.30;;
70078;SDS011;57451;52.496;13.456;2022-11-22T04:36:29;21.17;;;8.60;;
70078;SDS011;57451;52.496;13.456;2022-11-22T04:38:57;20.93;;;8.87;;
70078;SDS011;57451;52.496;13.456;2022-11-22T04:41:24;25.67;;;11.05;;
70078;SDS011;57451;52.496;13.456;2022-11-22T04:43:51;21.55;;;9.38;;
70078;SDS011;57451;52.496;13.456;2022-11-22T04:46:37;24.23;;;10.15;;
70078;SDS011;57451;52.496;13.456;2022-11-22T04:49:06;24.75;;;10.43;;
70078;SDS011;57451;52.496;13.456;2022-11-22T04:51:33;25.70;;;10.73;;
70078;SDS011;57451;52.496;13.456;2022-11-22T04:54:19;18.60;;;7.43;;
70078;SDS011;57451;52.496;13.456;2022-11-22T04:56:46;18.20;;;8.80;;
70078;SDS011;57451;52.496;13.456;2022-11-22T04:59:14;30.08;;;12.40;;
70078;SDS011;57451;52.496;13.456;2022-11-22T05:01:41;28.77;;;10.87;;
70078;SDS011;57451;52.496;13.456;2022-11-22T05:04:09;26.63;;;11.45;;
70078;SDS011;57451;52.496;13.456;2022-11-22T05:06:36;25.83;;;10.55;;
70078;SDS011;57451;52.496;13.456;2022-11-22T05:09:04;21.00;;;10.73;;
70078;SDS011;57451;52.496;13.456;2022-11-22T05:11:31;23.70;;;7.80;;
70078;SDS011;57451;52.496;13.456;2022-11-22T05:13:58;20.30;;;8.75;;
70078;SDS011;57451;52.496;13.456;2022-11-22T05:16:25;27.67;;;11.73;;
70078;SDS011;57451;52.496;13.456;2022-11-22T05:18:53;31.30;;;12.18;;
70078;SDS011;57451;52.496;13.456;2022-11-22T05:21:28;30.20;;;10.95;;
70078;SDS011;57451;52.496;13.456;2022-11-22T05:23:55;22.10;;;8.68;;
70078;SDS011;57451;52.496;13.456;2022-11-22T05:26:23;28.83;;;11.45;;
70078;SDS011;57451;52.496;13.456;2022-11-22T05:28:51;26.60;;;10.95;;
70078;SDS011;57451;52.496;13.456;2022-11-22T05:31:19;27.13;;;11.25;;
70078;SDS011;57451;52.496;13.456;2022-11-22T05:33:54;28.07;;;11.93;;
70078;SDS011;57451;52.496;13.456;2022-11-22T05:36:22;25.20;;;10.25;;
70078;SDS011;57451;52.496;13.456;2022-11-22T05:38:52;27.92;;;11.40;;
70078;SDS011;57451;52.496;13.456;2022-11-22T05:41:20;27.42;;;11.15;;
70078;SDS011;57451;52.496;13.456;2022-11-22T05:43:47;28.00;;;10.17;;
70078;SDS011;57451;52.496;13.456;2022-11-22T05:46:15;27.88;;;10.80;;
70078;SDS011;57451;52.496;13.456;2022-11-22T05:48:49;29.10;;;11.25;;
70078;SDS011;57451;52.496;13.456;2022-11-22T05:51:18;23.15;;;9.48;;
70078;SDS011;57451;52.496;13.456;2022-11-22T05:53:46;22.73;;;9.73;;
70078;SDS011;57451;52.496;13.456;2022-11-22T05:56:16;32.75;;;12.18;;
70078;SDS011;57451;52.496;13.456;2022-11-22T05:58:44;30.05;;;12.82;;
70078;SDS011;57451;52.496;13.456;2022-11-22T06:01:13;23.90;;;11.15;;
70078;SDS011;57451;52.496;13.456;2022-11-22T06:03:41;25.90;;;10.65;;
70078;SDS011;57451;52.496;13.456;2022-11-22T06:06:09;19.10;;;8.77;;
70078;SDS011;57451;52.496;13.456;2022-11-22T06:08:37;26.83;;;11.43;;
70078;SDS011;57451;52.496;13.456;2022-11-22T06:11:07;27.50;;;11.32;;
70078;SDS011;57451;52.496;13.456;2022-11-22T06:13:37;30.42;;;12.90;;
70078;SDS011;57451;52.496;13.456;2022-11-22T06:16:06;22.70;;;10.07;;
70078;SDS011;57451;52.496;13.456;2022-11-22T06:18:34;29.20;;;12.02;;
70078;SDS011;57451;52.496;13.456;2022-11-22T06:21:02;28.65;;;12.32;;
70078;SDS011;57451;52.496;13.456;2022-11-22T06:23:31;29.45;;;12.27;;
70078;SDS011;57451;52.496;13.456;2022-11-22T06:25:59;27.02;;;9.90;;
70078;SDS011;57451;52.496;13.456;2022-11-22T06:28:30;28.87;;;12.20;;
70078;SDS011;57451;52.496;13.456;2022-11-22T06:31:00;20.17;;;8.77;;
70078;SDS011;57451;52.496;13.456;2022-11-22T06:33:28;20.95;;;8.48;;
70078;SDS011;57451;52.496;13.456;2022-11-22T06:35:59;25.67;;;9.63;;
70078;SDS011;57451;52.496;13.456;2022-11-22T06:38:27;30.83;;;11.48;;
70078;SDS011;57451;52.496;13.456;2022-11-22T06:40:57;28.13;;;11.13;;
70078;SDS011;57451;52.496;13.456;2022-11-22T06:43:26;29.48;;;10.93;;
70078;SDS011;57451;52.496;13.456;2022-11-22T06:45:54;27.63;;;10.88;;
70078;SDS011;57451;52.496;13.456;2022-11-22T06:48:23;20.08;;;8.88;;
70078;SDS011;57451;52.496;13.456;2022-11-22T06:50:50;15.00;;;6.70;;
70078;SDS011;57451;52.496;13.456;2022-11-22T06:53:18;27.37;;;11.13;;
70078;SDS011;57451;52.496;13.456;2022-11-22T06:56:05;22.15;;;8.10;;
70078;SDS011;57451;52.496;13.456;2022-11-22T06:58:34;17.73;;;8.05;;
70078;SDS011;57451;52.496;13.456;2022-11-22T07:01:02;22.63;;;10.00;;
70078;SDS011;57451;52.496;13.456;2022-11-22T07:03:32;26.33;;;10.05;;
70078;SDS011;57451;52.496;13.456;2022-11-22T07:06:00;32.03;;;11.47;;
70078;SDS011;57451;52.496;13.456;2022-11-22T07:08:28;25.63;;;10.07;;
70078;SDS011;57451;52.496;13.456;2022-11-22T07:11:00;27.35;;;11.07;;
70078;SDS011;57451;52.496;13.456;2022-11-22T07:13:27;25.67;;;11.40;;
70078;SDS011;57451;52.496;13.456;2022-11-22T07:15:55;25.80;;;11.00;;
70078;SDS011;57451;52.496;13.456;2022-11-22T07:18:23;24.42;;;9.88;;
70078;SDS011;57451;52.496;13.456;2022-11-22T07:20:52;21.50;;;8.68;;
70078;SDS011;57451;52.496;13.456;2022-11-22T07:23:25;20.58;;;9.18;;
70078;SDS011;57451;52.496;13.456;2022-11-22T07:25:52;22.63;;;9.77;;
70078;SDS011;57451;52.496;13.456;2022-11-22T07:28:20;18.90;;;7.67;;
70078;SDS011;57451;52.496;13.456;2022-11-22T07:30:47;26.52;;;11.05;;
70078;SDS011;57451;52.496;13.456;2022-11-22T07:33:14;18.17;;;8.38;;
70078;SDS011;57451;52.496;13.456;2022-11-22T07:35:42;28.13;;;11.02;;
70078;SDS011;57451;52.496;13.456;2022-11-22T07:38:10;27.98;;;11.27;;
70078;SDS011;57451;52.496;13.456;2022-11-22T07:40:37;22.67;;;7.85;;
70078;SDS011;57451;52.496;13.456;2022-11-22T07:43:04;28.67;;;11.00;;
70078;SDS011;57451;52.496;13.456;2022-11-22T07:45:32;30.05;;;10.77;;
70078;SDS011;57451;52.496;13.456;2022-11-22T07:47:59;25.92;;;11.05;;
70078;SDS011;57451;52.496;13.456;2022-11-22T07:50:27;23.73;;;10.20;;
70078;SDS011;57451;52.496;13.456;2022-11-22T07:52:55;25.17;;;10.77;;
70078;SDS011;57451;52.496;13.456;2022-11-22T07:55:24;24.42;;;10.88;;
70078;SDS011;57451;52.496;13.456;2022-11-22T07:57:52;29.83;;;11.48;;
70078;SDS011;57451;52.496;13.456;2022-11-22T08:00:19;30.98;;;10.82;;
70078;SDS011;57451;52.496;13.456;2022-11-22T08:02:47;28.90;;;11.53;;
70078;SDS011;57451;52.496;13.456;2022-11-22T08:05:14;30.67;;;11.93;;
70078;SDS011;57451;52.496;13.456;2022-11-22T08:07:46;25.08;;;10.60;;
70078;SDS011;57451;52.496;13.456;2022-11-22T08:10:14;25.80;;;11.48;;
70078;SDS011;57451;52.496;13.456;2022-11-22T08:12:43;22.07;;;10.20;;
70078;SDS011;57451;52.496;13.456;2022-11-22T08:15:10;33.03;;;11.88;;
70078;SDS011;57451;52.496;13.456;2022-11-22T08:17:39;31.13;;;11.68;;
70078;SDS011;57451;52.496;13.456;2022-11-22T08:20:07;19.30;;;7.70;;
70078;SDS011;57451;52.496;13.456;2022-11-22T08:22:35;26.40;;;10.57;;
70078;SDS011;57451;52.496;13.456;2022-11-22T08:25:03;27.47;;;11.10;;
70078;SDS011;57451;52.496;13.456;2022-11-22T08:27:34;23.52;;;10.02;;
70078;SDS011;57451;52.496;13.456;2022-11-22T08:30:03;30.10;;;12.63;;
70078;SDS011;57451;52.496;13.456;2022-11-22T08:32:30;22.48;;;8.75;;
70078;SDS011;57451;52.496;13.456;2022-11-22T08:34:58;23.80;;;9.85;;
70078;SDS011;57451;52.496;13.456;2022-11-22T08:37:25;30.80;;;11.60;;
70078;SDS011;57451;52.496;13.456;2022-11-22T08:39:52;20.73;;;9.55;;
70078;SDS011;57451;52.496;13.456;2022-11-22T08:42:19;30.67;;;12.90;;
70078;SDS011;57451;52.496;13.456;2022-11-22T08:44:46;31.77;;;13.20;;
70078;SDS011;57451;52.496;13.456;2022-11-22T08:47:15;34.35;;;11.82;;
70078;SDS011;57451;52.496;13.456;2022-11-22T08:49:42;25.87;;;11.43;;
70078;SDS011;57451;52.496;13.456;2022-11-22T08:52:10;33.40;;;12.95;;
70078;SDS011;57451;52.496;13.456;2022-11-22T08:54:37;34.70;;;12.68;;
70078;SDS011;57451;52.496;13.456;2022-11-22T08:57:04;21.55;;;9.48;;
70078;SDS011;57451;52.496;13.456;2022-11-22T08:59:32;27.48;;;10.63;;
70078;SDS011;57451;52.496;13.456;2022-11-22T09:01:59;29.23;;;12.17;;
70078;SDS011;57451;52.496;13.456;2022-11-22T09:04:28;32.20;;;12.32;;
70078;SDS011;57451;52.496;13.456;2022-11-22T09:06:56;32.28;;;12.95;;
70078;SDS011;57451;52.496;13.456;2022-11-22T09:09:43;37.28;;;13.80;;
70078;SDS011;57451;52.496;13.456;2022-11-22T09:12:11;32.58;;;13.52;;
70078;SDS011;57451;52.496;13.456;2022-11-22T09:14:38;31.27;;;11.70;;
70078;SDS011;57451;52.496;13.456;2022-11-22T09:17:06;37.25;;;14.23;;
70078;SDS011;57451;52.496;13.456;2022-11-22T09:19:37;34.58;;;12.57;;
70078;SDS011;57451;52.496;13.456;2022-11-22T09:22:04;33.47;;;12.85;;
70078;SDS011;57451;52.496;13.456;2022-11-22T09:24:31;35.80;;;14.20;;
70078;SDS011;57451;52.496;13.456;2022-11-22T09:26:58;29.77;;;12.20;;
70078;SDS011;57451;52.496;13.456;2022-11-22T09:29:25;20.92;;;9.63;;
70078;SDS011;57451;52.496;13.456;2022-11-22T09:31:53;32.55;;;13.00;;
70078;SDS011;57451;52.496;13.456;2022-11-22T09:34:21;35.85;;;13.27;;
70078;SDS011;57451;52.496;13.456;2022-11-22T09:36:50;35.70;;;13.82;;
70078;SDS011;57451;52.496;13.456;2022-11-22T09:39:17;35.43;;;13.53;;
70078;SDS011;57451;52.496;13.456;2022-11-22T09:41:51;32.75;;;12.25;;
70078;SDS011;57451;52.496;13.456;2022-11-22T09:44:49;32.00;;;12.70;;
70078;SDS011;57451;52.496;13.456;2022-11-22T09:47:34;30.83;;;11.77;;
70078;SDS011;57451;52.496;13.456;2022-11-22T09:50:10;33.10;;;12.48;;
70078;SDS011;57451;52.496;13.456;2022-11-22T09:52:47;34.20;;;11.13;;
70078;SDS011;57451;52.496;13.456;2022-11-22T09:55:20;31.73;;;12.82;;
70078;SDS011;57451;52.496;13.456;2022-11-22T09:57:55;30.88;;;12.73;;
70078;SDS011;57451;52.496;13.456;2022-11-22T10:00:29;32.33;;;12.70;;
70078;SDS011;57451;52.496;13.456;2022-11-22T10:02:59;27.27;;;10.77;;
70078;SDS011;57451;52.496;13.456;2022-11-22T10:05:32;35.10;;;13.33;;
70078;SDS011;57451;52.496;13.456;2022-11-22T10:08:10;30.38;;;11.50;;
70078;SDS011;57451;52.496;13.456;2022-11-22T10:10:49;35.90;;;13.18;;
70078;SDS011;57451;52.496;13.456;2022-11-22T10:13:21;35.50;;;14.40;;
70078;SDS011;57451;52.496;13.456;2022-11-22T10:15:56;37.00;;;12.93;;
70078;SDS011;57451;52.496;13.456;2022-11-22T10:18:31;35.87;;;13.33;;
70078;SDS011;57451;52.496;13.456;2022-11-22T10:21:04;32.13;;;11.95;;
70078;SDS011;57451;52.496;13.456;2022-11-22T10:23:37;34.53;;;12.88;;
70078;SDS011;57451;52.496;13.456;2022-11-22T10:26:10;37.63;;;14.77;;
70078;SDS011;57451;52.496;13.456;2022-11-22T10:28:46;35.80;;;13.23;;
70078;SDS011;57451;52.496;13.456;2022-11-22T10:31:22;34.87;;;13.23;;
70078;SDS011;57451;52.496;13.456;2022-11-22T10:33:57;34.38;;;12.98;;
70078;SDS011;57451;52.496;13.456;2022-11-22T10:36:31;36.00;;;13.52;;
70078;SDS011;57451;52.496;13.456;2022-11-22T10:39:11;29.13;;;12.20;;
70078;SDS011;57451;52.496;13.456;2022-11-22T10:41:51;29.42;;;12.20;;
70078;SDS011;57451;52.496;13.456;2022-11-22T10:44:32;35.00;;;13.33;;
70078;SDS011;57451;52.496;13.456;2022-11-22T10:47:13;29.35;;;12.23;;
70078;SDS011;57451;52.496;13.456;2022-11-22T10:49:49;31.45;;;13.32;;
70078;SDS011;57451;52.496;13.456;2022-11-22T10:52:25;28.30;;;10.77;;
70078;SDS011;57451;52.496;13.456;2022-11-22T10:55:01;35.70;;;13.90;;
70078;SDS011;57451;52.496;13.456;2022-11-22T10:57:39;33.73;;;13.83;;
70078;SDS011;57451;52.496;13.456;2022-11-22T11:00:15;32.55;;;13.52;;
70078;SDS011;57451;52.496;13.456;2022-11-22T11:03:02;37.10;;;13.93;;
70078;SDS011;57451;52.496;13.456;2022-11-22T11:05:38;36.53;;;13.15;;
70078;SDS011;57451;52.496;13.456;2022-11-22T11:08:33;34.97;;;12.68;;
70078;SDS011;57451;52.496;13.456;2022-11-22T11:11:25;31.60;;;13.43;;
70078;SDS011;57451;52.496;13.456;2022-11-22T11:13:55;33.10;;;12.98;;
70078;SDS011;57451;52.496;13.456;2022-11-22T11:16:28;32.80;;;11.73;;
70078;SDS011;57451;52.496;13.456;2022-11-22T11:19:01;33.20;;;13.07;;
70078;SDS011;57451;52.496;13.456;2022-11-22T11:21:37;36.10;;;13.68;;
70078;SDS011;57451;52.496;13.456;2022-11-22T11:24:05;36.63;;;13.97;;
70078;SDS011;57451;52.496;13.456;2022-11-22T11:26:39;32.85;;;13.25;;
70078;SDS011;57451;52.496;13.456;2022-11-22T11:32:11;36.90;;;13.57;;
70078;SDS011;57451;52.496;13.456;2022-11-22T11:34:41;30.52;;;12.65;;
70078;SDS011;57451;52.496;13.456;2022-11-22T11:37:20;28.83;;;12.23;;
70078;SDS011;57451;52.496;13.456;2022-11-22T11:39:49;25.35;;;11.02;;
70078;SDS011;57451;52.496;13.456;2022-11-22T11:42:21;25.90;;;11.05;;
70078;SDS011;57451;52.496;13.456;2022-11-22T11:44:50;36.58;;;12.98;;
70078;SDS011;57451;52.496;13.456;2022-11-22T11:47:18;34.58;;;12.75;;
70078;SDS011;57451;52.496;13.456;2022-11-22T11:49:56;31.47;;;12.17;;
70078;SDS011;57451;52.496;13.456;2022-11-22T11:52:24;32.28;;;13.48;;
70078;SDS011;57451;52.496;13.456;2022-11-22T11:54:55;34.95;;;13.57;;
70078;SDS011;57451;52.496;13.456;2022-11-22T11:57:26;31.75;;;13.40;;
70078;SDS011;57451;52.496;13.456;2022-11-22T11:59:55;34.88;;;15.30;;
70078;SDS011;57451;52.496;13.456;2022-11-22T12:02:26;31.13;;;12.53;;
70078;SDS011;57451;52.496;13.456;2022-11-22T12:05:00;34.60;;;13.18;;
70078;SDS011;57451;52.496;13.456;2022-11-22T12:07:37;36.63;;;14.05;;
70078;SDS011;57451;52.496;13.456;2022-11-22T12:13:02;31.92;;;13.80;;
70078;SDS011;57451;52.496;13.456;2022-11-22T12:15:38;31.13;;;14.00;;
70078;SDS011;57451;52.496;13.456;2022-11-22T12:18:22;35.47;;;13.70;;
70078;SDS011;57451;52.496;13.456;2022-11-22T12:21:02;33.22;;;13.18;;
70078;SDS011;57451;52.496;13.456;2022-11-22T12:23:42;36.47;;;13.73;;
70078;SDS011;57451;52.496;13.456;2022-11-22T12:26:36;30.77;;;12.55;;
70078;SDS011;57451;52.496;13.456;2022-11-22T12:29:05;35.87;;;14.33;;
70078;SDS011;57451;52.496;13.456;2022-11-22T12:31:36;31.55;;;13.13;;
70078;SDS011;57451;52.496;13.456;2022-11-22T12:34:09;33.45;;;13.25;;
70078;SDS011;57451;52.496;13.456;2022-11-22T12:36:43;34.95;;;13.30;;
70078;SDS011;57451;52.496;13.456;2022-11-22T12:39:14;30.65;;;13.00;;
70078;SDS011;57451;52.496;13.456;2022-11-22T12:41:44;30.83;;;12.30;;
70078;SDS011;57451;52.496;13.456;2022-11-22T12:44:16;32.55;;;13.50;;
70078;SDS011;57451;52.496;13.456;2022-11-22T12:46:47;35.17;;;13.50;;
70078;SDS011;57451;52.496;13.456;2022-11-22T12:49:26;33.05;;;13.43;;
70078;SDS011;57451;52.496;13.456;2022-11-22T12:52:00;34.28;;;13.93;;
70078;SDS011;57451;52.496;13.456;2022-11-22T12:54:36;35.93;;;13.13;;
70078;SDS011;57451;52.496;13.456;2022-11-22T12:57:10;30.67;;;11.05;;
70078;SDS011;57451;52.496;13.456;2022-11-22T12:59:45;38.63;;;14.73;;
70078;SDS011;57451;52.496;13.456;2022-11-22T13:02:20;32.80;;;13.63;;
70078;SDS011;57451;52.496;13.456;2022-11-22T13:04:57;30.70;;;11.82;;
70078;SDS011;57451;52.496;13.456;2022-11-22T13:07:32;34.60;;;13.17;;
70078;SDS011;57451;52.496;13.456;2022-11-22T13:10:17;35.97;;;13.38;;
70078;SDS011;57451;52.496;13.456;2022-11-22T13:12:54;36.90;;;15.18;;
70078;SDS011;57451;52.496;13.456;2022-11-22T13:15:26;32.83;;;14.32;;
70078;SDS011;57451;52.496;13.456;2022-11-22T13:17:56;35.22;;;13.93;;
70078;SDS011;57451;52.496;13.456;2022-11-22T13:20:24;33.03;;;13.23;;
70078;SDS011;57451;52.496;13.456;2022-11-22T13:22:56;35.35;;;14.32;;
70078;SDS011;57451;52.496;13.456;2022-11-22T13:25:39;24.65;;;10.50;;
70078;SDS011;57451;52.496;13.456;2022-11-22T13:28:17;22.95;;;10.15;;
70078;SDS011;57451;52.496;13.456;2022-11-22T13:31:04;35.50;;;12.77;;
70078;SDS011;57451;52.496;13.456;2022-11-22T13:33:39;27.33;;;11.40;;
70078;SDS011;57451;52.496;13.456;2022-11-22T13:39:05;31.35;;;13.30;;
70078;SDS011;57451;52.496;13.456;2022-11-22T13:41:39;35.00;;;13.60;;
70078;SDS011;57451;52.496;13.456;2022-11-22T13:44:22;29.98;;;13.35;;
70078;SDS011;57451;52.496;13.456;2022-11-22T13:46:57;37.30;;;13.97;;
70078;SDS011;57451;52.496;13.456;2022-11-22T13:49:30;33.10;;;13.55;;
70078;SDS011;57451;52.496;13.456;2022-11-22T13:52:08;27.48;;;11.43;;
70078;SDS011;57451;52.496;13.456;2022-11-22T13:55:31;32.92;;;13.27;;
70078;SDS011;57451;52.496;13.456;2022-11-22T14:01:53;31.90;;;13.33;;
70078;SDS011;57451;52.496;13.456;2022-11-22T14:04:28;30.08;;;12.98;;
70078;SDS011;57451;52.496;13.456;2022-11-22T14:07:01;32.55;;;14.45;;
70078;SDS011;57451;52.496;13.456;2022-11-22T14:09:32;30.92;;;12.98;;
70078;SDS011;57451;52.496;13.456;2022-11-22T14:12:11;31.88;;;13.60;;
70078;SDS011;57451;52.496;13.456;2022-11-22T14:14:50;33.57;;;13.60;;
70078;SDS011;57451;52.496;13.456;2022-11-22T14:17:36;28.85;;;12.75;;
70078;SDS011;57451;52.496;13.456;2022-11-22T14:20:19;31.42;;;13.65;;
70078;SDS011;57451;52.496;13.456;2022-11-22T14:23:00;33.50;;;13.70;;
70078;SDS011;57451;52.496;13.456;2022-11-22T14:25:39;33.92;;;13.18;;
70078;SDS011;57451;52.496;13.456;2022-11-22T14:28:20;39.57;;;14.83;;
70078;SDS011;57451;52.496;13.456;2022-11-22T14:30:59;33.53;;;13.20;;
70078;SDS011;57451;52.496;13.456;2022-11-22T14:36:44;34.78;;;13.88;;
70078;SDS011;57451;52.496;13.456;2022-11-22T14:42:47;39.03;;;14.07;;
70078;SDS011;57451;52.496;13.456;2022-11-22T14:45:21;34.88;;;14.05;;
70078;SDS011;57451;52.496;13.456;2022-11-22T14:47:55;36.05;;;14.23;;
70078;SDS011;57451;52.496;13.456;2022-11-22T14:50:28;38.72;;;14.48;;
70078;SDS011;57451;52.496;13.456;2022-11-22T14:53:01;37.10;;;14.13;;
70078;SDS011;57451;52.496;13.456;2022-11-22T14:55:34;36.13;;;13.37;;
70078;SDS011;57451;52.496;13.456;2022-11-22T14:58:03;32.78;;;13.70;;
70078;SDS011;57451;52.496;13.456;2022-11-22T15:00:36;32.35;;;14.32;;